Time;durP1;ratioP1;P1;durP2;ratioP2;P2;SDS_P1;SDS_P2;PMS_P1;PMS_P2;Temp;Humidity;BMP_temperature;BMP_pressure;BME280_temperature;BME280_humidity;BME280_pressure;Samples;Min_cycle;Max_cycle;Signal;HPM_P1;HPM_P2
2021/10/22 00:00:19;;;;;;;46.10;8.13;;;;;;;;;;5010045;28;20041;-63
2021/10/22 00:02:45;;;;;;;26.23;5.50;;;;;;;;;;5010390;28;20038;-63
2021/10/22 00:05:11;;;;;;;33.03;6.28;;;;;;;;;;5009955;28;20025;-63
2021/10/22 00:07:37;;;;;;;31.17;6.07;;;;;;;;;;5008076;28;20490;-63
2021/10/22 00:10:03;;;;;;;43.15;6.93;;;;;;;;;;5011669;28;20033;-63
2021/10/22 00:12:29;;;;;;;26.45;5.25;;;;;;;;;;5008069;28;20038;-63
2021/10/22 00:14:55;;;;;;;24.80;5.57;;;;;;;;;;5010384;28;20038;-63
2021/10/22 00:17:21;;;;;;;33.47;6.38;;;;;;;;;;5007664;28;20030;-63
2021/10/22 00:19:48;;;;;;;37.58;6.55;;;;;;;;;;5010494;28;20497;-63
2021/10/22 00:22:14;;;;;;;37.33;6.53;;;;;;;;;;5006400;28;20105;-63
2021/10/22 00:24:40;;;;;;;36.78;6.80;;;;;;;;;;5011111;28;20060;-63
2021/10/22 00:27:06;;;;;;;28.25;5.53;;;;;;;;;;5007834;28;20113;-63
2021/10/22 00:29:33;;;;;;;29.40;5.55;;;;;;;;;;5011720;28;20061;-63
2021/10/22 00:31:59;;;;;;;33.78;6.43;;;;;;;;;;5009322;28;20587;-63
2021/10/22 00:34:26;;;;;;;24.17;5.97;;;;;;;;;;5007492;28;20042;-64
2021/10/22 00:36:52;;;;;;;29.30;6.22;;;;;;;;;;5007692;28;20105;-63
2021/10/22 00:39:18;;;;;;;27.90;6.03;;;;;;;;;;5010072;28;20038;-63
2021/10/22 00:41:45;;;;;;;29.42;5.30;;;;;;;;;;5009406;28;20034;-63
2021/10/22 00:44:11;;;;;;;31.98;5.63;;;;;;;;;;5008211;28;20510;-63
2021/10/22 00:46:41;;;;;;;28.35;5.57;;;;;;;;;;5010040;28;20135;-63
2021/10/22 00:49:08;;;;;;;32.88;5.85;;;;;;;;;;5009128;28;20037;-63
2021/10/22 00:51:34;;;;;;;33.38;6.00;;;;;;;;;;5006776;28;21042;-63
2021/10/22 00:54:00;;;;;;;28.77;5.93;;;;;;;;;;5008958;28;20087;-63
2021/10/22 00:56:26;;;;;;;33.38;6.70;;;;;;;;;;5008373;28;20156;-63
2021/10/22 00:58:52;;;;;;;28.40;5.22;;;;;;;;;;5008177;28;20030;-63
2021/10/22 01:01:18;;;;;;;29.95;6.13;;;;;;;;;;5007856;28;20064;-63
2021/10/22 01:03:44;;;;;;;33.85;6.72;;;;;;;;;;5007624;28;20617;-63
2021/10/22 01:06:11;;;;;;;26.85;6.05;;;;;;;;;;5009135;28;20896;-63
2021/10/22 01:08:37;;;;;;;24.42;5.13;;;;;;;;;;5006483;28;20077;-63
2021/10/22 01:11:03;;;;;;;27.00;5.18;;;;;;;;;;5009749;28;20065;-64
2021/10/22 01:13:29;;;;;;;28.45;6.45;;;;;;;;;;5007532;28;20023;-63
2021/10/22 01:15:55;;;;;;;30.05;6.65;;;;;;;;;;5006529;28;20038;-63
2021/10/22 01:18:22;;;;;;;21.80;5.22;;;;;;;;;;5007828;28;20623;-63
2021/10/22 01:20:48;;;;;;;38.70;6.55;;;;;;;;;;5014430;28;20033;-64
2021/10/22 01:23:15;;;;;;;39.58;6.85;;;;;;;;;;5012805;28;20033;-64
2021/10/22 01:25:41;;;;;;;43.72;7.95;;;;;;;;;;5012781;28;20532;-63
2021/10/22 01:28:08;;;;;;;36.90;7.45;;;;;;;;;;5009167;28;20048;-63
2021/10/22 01:30:34;;;;;;;41.58;6.82;;;;;;;;;;5009170;28;20042;-63
2021/10/22 01:33:00;;;;;;;34.28;6.47;;;;;;;;;;5010883;28;21002;-63
2021/10/22 01:35:27;;;;;;;31.30;5.70;;;;;;;;;;5009418;28;20049;-63
2021/10/22 01:37:53;;;;;;;32.13;6.45;;;;;;;;;;5012659;28;20048;-63
2021/10/22 01:40:19;;;;;;;31.85;7.93;;;;;;;;;;5010242;28;20026;-63
2021/10/22 01:42:45;;;;;;;29.25;6.45;;;;;;;;;;5010434;28;20075;-63
2021/10/22 01:45:11;;;;;;;32.35;6.43;;;;;;;;;;5009671;28;20055;-63
2021/10/22 01:47:39;;;;;;;29.55;6.03;;;;;;;;;;5009971;28;20168;-62
2021/10/22 01:50:05;;;;;;;26.13;5.60;;;;;;;;;;5009719;28;20037;-63
2021/10/22 01:52:31;;;;;;;24.20;6.18;;;;;;;;;;5014319;28;20041;-63
2021/10/22 01:54:57;;;;;;;26.02;5.78;;;;;;;;;;5010266;28;20040;-63
2021/10/22 01:57:23;;;;;;;27.33;6.28;;;;;;;;;;5009808;28;20044;-63
2021/10/22 01:59:50;;;;;;;26.95;5.75;;;;;;;;;;5012126;28;20482;-63
2021/10/22 02:02:16;;;;;;;23.90;5.13;;;;;;;;;;5011329;28;20038;-63
2021/10/22 02:04:42;;;;;;;16.85;3.50;;;;;;;;;;5009345;28;20040;-63
2021/10/22 02:07:08;;;;;;;27.30;3.97;;;;;;;;;;5011709;28;20049;-63
2021/10/22 02:09:34;;;;;;;21.00;3.95;;;;;;;;;;5013160;28;20029;-63
2021/10/22 02:12:00;;;;;;;22.67;4.35;;;;;;;;;;5009437;28;20057;-63
2021/10/22 02:14:26;;;;;;;25.58;4.85;;;;;;;;;;5013500;28;20033;-63
2021/10/22 02:16:52;;;;;;;23.88;5.60;;;;;;;;;;5007879;28;20038;-63
2021/10/22 02:19:19;;;;;;;28.52;6.28;;;;;;;;;;5012823;28;20057;-63
2021/10/22 02:21:45;;;;;;;25.98;5.85;;;;;;;;;;5009070;28;20549;-63
2021/10/22 02:24:11;;;;;;;23.90;5.63;;;;;;;;;;5012473;28;20031;-63
2021/10/22 02:26:37;;;;;;;19.30;4.82;;;;;;;;;;5009753;28;20758;-63
2021/10/22 02:29:03;;;;;;;30.73;5.75;;;;;;;;;;5009257;28;20128;-63
2021/10/22 02:31:29;;;;;;;20.25;4.97;;;;;;;;;;5009858;28;20048;-63
2021/10/22 02:33:55;;;;;;;20.27;4.88;;;;;;;;;;5009829;28;20041;-63
2021/10/22 02:36:21;;;;;;;18.95;5.43;;;;;;;;;;5010681;28;20033;-62
2021/10/22 02:38:47;;;;;;;25.20;6.43;;;;;;;;;;5009018;28;20037;-63
2021/10/22 02:41:13;;;;;;;25.65;5.70;;;;;;;;;;5009932;28;20033;-63
2021/10/22 02:43:42;;;;;;;24.73;6.28;;;;;;;;;;5011243;28;20041;-63
2021/10/22 02:46:08;;;;;;;19.33;5.25;;;;;;;;;;5010791;28;20036;-63
2021/10/22 02:48:34;;;;;;;26.98;6.25;;;;;;;;;;5012182;28;20034;-63
2021/10/22 02:51:00;;;;;;;23.52;5.20;;;;;;;;;;5010258;28;20060;-63
2021/10/22 02:53:26;;;;;;;24.02;5.10;;;;;;;;;;5025121;28;20037;-63
2021/10/22 02:55:52;;;;;;;32.28;6.43;;;;;;;;;;5010489;28;20038;-63
2021/10/22 02:58:18;;;;;;;23.63;5.95;;;;;;;;;;5012270;28;20625;-63
2021/10/22 03:00:44;;;;;;;24.08;5.82;;;;;;;;;;5012087;28;20038;-63
2021/10/22 03:03:10;;;;;;;27.50;5.80;;;;;;;;;;5012228;28;20063;-63
2021/10/22 03:05:36;;;;;;;26.92;5.25;;;;;;;;;;5011681;28;20037;-63
2021/10/22 03:08:02;;;;;;;23.10;4.90;;;;;;;;;;5008855;28;20647;-63
2021/10/22 03:10:28;;;;;;;18.80;4.85;;;;;;;;;;5010745;28;20041;-63
2021/10/22 03:12:54;;;;;;;39.33;6.35;;;;;;;;;;5011801;28;20060;-63
2021/10/22 03:15:20;;;;;;;25.42;7.15;;;;;;;;;;5010756;28;20121;-63
2021/10/22 03:17:46;;;;;;;28.20;6.03;;;;;;;;;;5010159;28;20039;-63
2021/10/22 03:20:12;;;;;;;28.15;6.40;;;;;;;;;;5008342;28;20790;-63
2021/10/22 03:22:38;;;;;;;26.52;6.72;;;;;;;;;;5012497;28;20039;-63
2021/10/22 03:25:04;;;;;;;27.13;5.70;;;;;;;;;;5010456;28;20674;-63
2021/10/22 03:27:30;;;;;;;21.50;6.35;;;;;;;;;;5010345;28;20547;-63
2021/10/22 03:29:56;;;;;;;21.05;4.53;;;;;;;;;;5010870;28;20698;-63
2021/10/22 03:32:22;;;;;;;30.10;5.82;;;;;;;;;;5009768;28;20092;-63
2021/10/22 03:34:48;;;;;;;19.90;5.53;;;;;;;;;;5011124;28;20068;-63
2021/10/22 03:37:14;;;;;;;25.30;5.60;;;;;;;;;;5008319;28;20041;-63
2021/10/22 03:39:40;;;;;;;25.65;6.32;;;;;;;;;;5010957;28;20029;-63
2021/10/22 03:42:07;;;;;;;24.00;6.18;;;;;;;;;;5005918;28;20037;-63
2021/10/22 03:44:33;;;;;;;28.92;6.43;;;;;;;;;;5011403;28;20405;-64
2021/10/22 03:46:59;;;;;;;22.88;5.85;;;;;;;;;;5007382;28;20038;-63
2021/10/22 03:49:25;;;;;;;25.48;5.90;;;;;;;;;;5009894;28;20043;-63
2021/10/22 03:51:51;;;;;;;24.30;5.97;;;;;;;;;;5011697;28;20037;-63
2021/10/22 03:54:17;;;;;;;20.63;5.90;;;;;;;;;;5008127;28;20909;-63
2021/10/22 03:56:43;;;;;;;18.40;5.30;;;;;;;;;;5011460;28;20034;-63
2021/10/22 03:59:09;;;;;;;17.50;4.57;;;;;;;;;;5007579;28;20030;-63
2021/10/22 04:01:35;;;;;;;25.92;5.30;;;;;;;;;;5009837;28;20807;-63
2021/10/22 04:04:01;;;;;;;20.77;5.13;;;;;;;;;;5009516;28;20781;-63
2021/10/22 04:06:27;;;;;;;18.63;5.13;;;;;;;;;;5007944;28;20132;-63
2021/10/22 04:08:53;;;;;;;27.10;5.40;;;;;;;;;;5009574;28;20033;-63
2021/10/22 04:11:19;;;;;;;24.80;5.47;;;;;;;;;;5009898;28;20552;-63
2021/10/22 04:13:45;;;;;;;24.75;5.72;;;;;;;;;;5008636;28;20042;-63
2021/10/22 04:16:11;;;;;;;25.08;6.05;;;;;;;;;;5006866;28;20049;-63
2021/10/22 04:18:37;;;;;;;24.52;5.50;;;;;;;;;;5011640;28;20032;-63
2021/10/22 04:21:03;;;;;;;26.98;6.38;;;;;;;;;;5009074;28;20037;-63
2021/10/22 04:23:29;;;;;;;19.80;6.40;;;;;;;;;;5009988;28;20029;-63
2021/10/22 04:25:55;;;;;;;30.70;6.00;;;;;;;;;;5007470;28;20029;-63
2021/10/22 04:28:21;;;;;;;22.42;4.72;;;;;;;;;;5006226;28;20052;-63
2021/10/22 04:30:48;;;;;;;28.88;5.50;;;;;;;;;;5009918;28;20041;-63
2021/10/22 04:33:14;;;;;;;28.58;6.07;;;;;;;;;;5008710;28;20060;-63
2021/10/22 04:35:40;;;;;;;27.10;6.45;;;;;;;;;;5009667;28;20576;-63
2021/10/22 04:40:40;;;;;;;26.63;6.00;;;;;;;;;;5007140;28;20034;-63
2021/10/22 04:43:07;;;;;;;37.75;6.40;;;;;;;;;;5009765;28;20041;-62
2021/10/22 04:45:33;;;;;;;28.38;7.35;;;;;;;;;;5010629;28;20516;-62
2021/10/22 04:47:59;;;;;;;27.67;6.53;;;;;;;;;;5008632;28;20034;-62
2021/10/22 04:50:25;;;;;;;28.65;5.68;;;;;;;;;;5007488;28;20041;-63
2021/10/22 04:52:54;;;;;;;22.35;5.43;;;;;;;;;;5010478;28;20727;-62
2021/10/22 04:55:20;;;;;;;21.67;4.80;;;;;;;;;;5008570;28;20038;-62
2021/10/22 04:57:46;;;;;;;26.10;6.10;;;;;;;;;;5003605;28;20395;-63
2021/10/22 05:00:12;;;;;;;24.08;5.88;;;;;;;;;;5004098;28;20045;-63
2021/10/22 05:02:38;;;;;;;27.83;6.40;;;;;;;;;;5008338;28;20044;-62
2021/10/22 05:05:04;;;;;;;26.83;5.03;;;;;;;;;;5007634;28;20030;-63
2021/10/22 05:07:30;;;;;;;18.83;5.32;;;;;;;;;;5005740;28;20531;-63
2021/10/22 05:09:56;;;;;;;23.73;4.47;;;;;;;;;;5009504;28;20686;-63
2021/10/22 05:12:24;;;;;;;18.67;4.57;;;;;;;;;;5008100;28;20025;-63
2021/10/22 05:14:50;;;;;;;19.00;4.53;;;;;;;;;;5007832;28;20076;-63
2021/10/22 05:17:16;;;;;;;23.27;5.15;;;;;;;;;;5004780;28;20046;-63
2021/10/22 05:19:42;;;;;;;19.00;5.10;;;;;;;;;;5002783;28;20034;-62
2021/10/22 05:22:08;;;;;;;28.65;5.95;;;;;;;;;;5007842;28;20076;-63
2021/10/22 05:24:34;;;;;;;24.98;5.47;;;;;;;;;;5006886;28;20112;-63
2021/10/22 05:27:00;;;;;;;25.20;5.20;;;;;;;;;;5010101;28;20043;-63
2021/10/22 05:29:26;;;;;;;20.80;5.07;;;;;;;;;;5009037;28;20033;-62
2021/10/22 05:31:51;;;;;;;20.23;6.25;;;;;;;;;;5007343;28;20107;-63
2021/10/22 05:34:20;;;;;;;31.45;6.57;;;;;;;;;;5003051;28;20030;-63
2021/10/22 05:36:46;;;;;;;32.95;6.05;;;;;;;;;;5004537;28;20045;-63
2021/10/22 05:39:15;;;;;;;24.00;5.78;;;;;;;;;;5003463;28;20780;-63
2021/10/22 05:41:41;;;;;;;28.42;6.53;;;;;;;;;;5006062;28;20904;-63
2021/10/22 05:44:07;;;;;;;30.00;6.63;;;;;;;;;;5008317;28;20034;-63
2021/10/22 05:46:33;;;;;;;29.23;6.38;;;;;;;;;;5011355;28;20037;-62
2021/10/22 05:48:59;;;;;;;28.08;7.18;;;;;;;;;;5008916;28;20029;-63
2021/10/22 05:51:25;;;;;;;33.67;6.22;;;;;;;;;;5010824;28;20030;-62
2021/10/22 05:53:55;;;;;;;35.75;6.32;;;;;;;;;;5003394;28;20041;-73
2021/10/22 05:56:21;;;;;;;28.00;5.47;;;;;;;;;;5004376;28;20751;-74
2021/10/22 05:58:47;;;;;;;25.85;5.78;;;;;;;;;;5007046;28;20113;-73
2021/10/22 06:01:13;;;;;;;24.70;4.85;;;;;;;;;;5006529;28;20707;-63
2021/10/22 06:03:39;;;;;;;29.30;5.53;;;;;;;;;;5005646;28;20121;-63
2021/10/22 06:06:06;;;;;;;34.72;6.30;;;;;;;;;;5009921;28;20037;-63
2021/10/22 06:08:32;;;;;;;25.42;5.68;;;;;;;;;;5018657;28;20053;-63
2021/10/22 06:10:58;;;;;;;30.10;7.60;;;;;;;;;;5015621;28;20033;-62
2021/10/22 06:13:24;;;;;;;25.73;4.60;;;;;;;;;;5012179;28;20127;-63
2021/10/22 06:15:50;;;;;;;28.83;5.32;;;;;;;;;;5014628;28;20126;-64
2021/10/22 06:18:18;;;;;;;29.52;6.28;;;;;;;;;;5012674;28;20112;-63
2021/10/22 06:21:00;;;;;;;29.13;5.20;;;;;;;;;;5013918;28;20048;-63
2021/10/22 06:26:10;;;;;;;29.05;5.90;;;;;;;;;;5010861;28;20029;-63
2021/10/22 06:28:36;;;;;;;34.92;6.60;;;;;;;;;;5007774;28;20590;-63
2021/10/22 06:31:02;;;;;;;36.22;6.18;;;;;;;;;;5008829;28;20764;-64
2021/10/22 06:33:28;;;;;;;32.35;6.43;;;;;;;;;;5012901;28;20056;-63
2021/10/22 06:35:54;;;;;;;30.95;5.45;;;;;;;;;;5010023;28;20077;-63
2021/10/22 06:38:21;;;;;;;42.10;6.95;;;;;;;;;;5010772;28;20046;-63
2021/10/22 06:40:47;;;;;;;32.28;5.60;;;;;;;;;;4997880;28;20124;-64
2021/10/22 06:43:17;;;;;;;32.25;5.80;;;;;;;;;;5009921;28;20034;-63
2021/10/22 06:45:42;;;;;;;35.95;6.05;;;;;;;;;;5011280;28;20044;-64
2021/10/22 06:48:08;;;;;;;31.85;6.07;;;;;;;;;;5009730;28;20034;-63
2021/10/22 06:50:35;;;;;;;33.00;5.78;;;;;;;;;;5010940;28;20810;-63
2021/10/22 06:53:00;;;;;;;32.00;6.47;;;;;;;;;;5011158;28;20056;-63
2021/10/22 06:55:27;;;;;;;40.53;7.15;;;;;;;;;;5010968;28;20501;-63
2021/10/22 06:57:53;;;;;;;57.40;7.47;;;;;;;;;;5011975;28;20045;-63
2021/10/22 07:00:18;;;;;;;61.63;7.82;;;;;;;;;;5010479;28;20040;-63
2021/10/22 07:02:45;;;;;;;71.75;8.95;;;;;;;;;;5010857;28;20069;-63
2021/10/22 07:05:22;;;;;;;60.97;8.25;;;;;;;;;;5014254;28;20143;-63
2021/10/22 07:07:48;;;;;;;53.92;6.10;;;;;;;;;;5008574;28;20095;-63
2021/10/22 07:10:14;;;;;;;53.38;6.97;;;;;;;;;;5011567;28;20041;-63
2021/10/22 07:12:40;;;;;;;63.75;9.43;;;;;;;;;;5011666;28;20044;-63
2021/10/22 07:15:06;;;;;;;61.30;8.23;;;;;;;;;;5011181;28;20831;-62
2021/10/22 07:17:33;;;;;;;42.72;5.97;;;;;;;;;;5013755;28;20121;-63
2021/10/22 07:19:59;;;;;;;46.38;6.70;;;;;;;;;;5005237;28;20347;-62
2021/10/22 07:22:31;;;;;;;50.05;6.20;;;;;;;;;;5001678;28;20030;-63
2021/10/22 07:24:57;;;;;;;66.75;7.97;;;;;;;;;;5002988;28;20037;-63
2021/10/22 07:27:23;;;;;;;71.80;8.85;;;;;;;;;;5013403;28;20520;-63
2021/10/22 07:29:50;;;;;;;50.75;6.63;;;;;;;;;;5011852;28;20054;-63
2021/10/22 07:32:15;;;;;;;51.53;7.28;;;;;;;;;;5021747;28;20549;-63
2021/10/22 07:34:41;;;;;;;67.80;8.63;;;;;;;;;;5021887;28;20060;-63
2021/10/22 07:37:08;;;;;;;66.25;12.68;;;;;;;;;;5008661;28;20271;-63
2021/10/22 07:39:34;;;;;;;71.45;14.25;;;;;;;;;;5021440;28;20037;-63
2021/10/22 07:42:00;;;;;;;47.50;7.03;;;;;;;;;;5018420;28;20029;-63
2021/10/22 07:44:26;;;;;;;74.57;11.40;;;;;;;;;;5004931;28;20092;-63
2021/10/22 07:46:53;;;;;;;51.15;9.32;;;;;;;;;;5007707;28;20064;-63
2021/10/22 07:49:20;;;;;;;60.70;7.45;;;;;;;;;;5009710;28;20037;-63
2021/10/22 07:51:46;;;;;;;50.10;8.30;;;;;;;;;;5011460;28;20029;-63
2021/10/22 07:54:12;;;;;;;59.20;10.43;;;;;;;;;;5010772;28;20121;-64
2021/10/22 07:56:43;;;;;;;51.58;8.15;;;;;;;;;;5010998;28;20533;-63
2021/10/22 07:59:09;;;;;;;50.58;7.20;;;;;;;;;;5011838;28;20077;-63
2021/10/22 08:01:35;;;;;;;39.10;5.63;;;;;;;;;;5009782;28;20033;-63
2021/10/22 08:04:01;;;;;;;72.90;10.63;;;;;;;;;;5013582;28;20548;-63
2021/10/22 08:06:27;;;;;;;92.00;18.92;;;;;;;;;;5007141;28;20030;-63
2021/10/22 08:08:53;;;;;;;53.80;7.18;;;;;;;;;;5010377;28;20034;-63
2021/10/22 08:11:19;;;;;;;57.28;9.80;;;;;;;;;;5013480;28;20053;-64
2021/10/22 08:13:45;;;;;;;49.35;6.32;;;;;;;;;;5010549;28;20030;-64
2021/10/22 08:16:11;;;;;;;52.78;11.40;;;;;;;;;;5012365;28;20040;-63
2021/10/22 08:18:38;;;;;;;44.70;6.97;;;;;;;;;;5010883;28;20030;-64
2021/10/22 08:21:21;;;;;;;33.08;6.50;;;;;;;;;;5010542;28;20143;-63
2021/10/22 08:23:47;;;;;;;45.55;6.32;;;;;;;;;;5010346;28;20068;-64
2021/10/22 08:26:13;;;;;;;45.10;7.30;;;;;;;;;;5013090;28;20033;-63
2021/10/22 08:28:39;;;;;;;52.65;9.13;;;;;;;;;;5008229;28;20539;-63
2021/10/22 08:31:06;;;;;;;49.40;8.32;;;;;;;;;;5013352;28;20100;-64
2021/10/22 08:33:32;;;;;;;53.75;8.48;;;;;;;;;;5009831;28;20035;-64
2021/10/22 08:35:59;;;;;;;58.88;9.00;;;;;;;;;;5010016;28;20030;-63
2021/10/22 08:38:25;;;;;;;56.05;9.65;;;;;;;;;;5010380;28;20042;-63
2021/10/22 08:40:51;;;;;;;22.17;4.90;;;;;;;;;;5011317;28;20408;-64
2021/10/22 08:43:17;;;;;;;26.52;9.43;;;;;;;;;;5008955;28;20472;-64
2021/10/22 08:45:43;;;;;;;15.40;3.70;;;;;;;;;;4994221;28;20124;-64
2021/10/22 08:48:11;;;;;;;15.68;3.63;;;;;;;;;;5008031;28;20554;-64
2021/10/22 08:50:37;;;;;;;13.82;3.08;;;;;;;;;;5009606;28;20079;-65
2021/10/22 08:53:03;;;;;;;13.25;2.42;;;;;;;;;;5009914;28;20033;-64
2021/10/22 08:55:29;;;;;;;8.50;3.45;;;;;;;;;;5010588;28;20029;-64
2021/10/22 08:57:55;;;;;;;14.98;3.55;;;;;;;;;;5007388;28;20048;-63
2021/10/22 09:00:21;;;;;;;26.42;10.13;;;;;;;;;;5008562;28;20537;-64
2021/10/22 09:02:50;;;;;;;15.90;4.90;;;;;;;;;;5009076;28;20537;-64
2021/10/22 09:05:16;;;;;;;12.70;2.53;;;;;;;;;;5008571;28;20037;-65
2021/10/22 09:07:42;;;;;;;13.15;2.60;;;;;;;;;;5009001;28;20527;-64
2021/10/22 09:10:08;;;;;;;21.40;3.20;;;;;;;;;;5008484;28;20149;-64
2021/10/22 09:12:34;;;;;;;15.13;2.65;;;;;;;;;;5011420;28;20090;-64
2021/10/22 09:15:00;;;;;;;12.70;1.70;;;;;;;;;;5008521;28;20529;-63
2021/10/22 09:17:26;;;;;;;11.57;2.55;;;;;;;;;;5010076;28;20041;-66
2021/10/22 09:19:52;;;;;;;19.35;3.70;;;;;;;;;;5007998;28;20041;-65
2021/10/22 09:22:18;;;;;;;22.50;4.32;;;;;;;;;;5010426;28;20215;-64
2021/10/22 09:24:44;;;;;;;14.10;2.10;;;;;;;;;;4999919;28;20026;-64
2021/10/22 09:27:10;;;;;;;9.88;2.63;;;;;;;;;;4998479;28;20111;-64
2021/10/22 09:29:36;;;;;;;20.23;4.38;;;;;;;;;;5006169;28;20696;-64
2021/10/22 09:32:02;;;;;;;9.13;1.85;;;;;;;;;;5002025;28;20034;-64
2021/10/22 09:34:29;;;;;;;14.60;2.50;;;;;;;;;;5006790;28;20886;-63
2021/10/22 09:36:55;;;;;;;10.38;2.42;;;;;;;;;;5007281;28;20421;-64
2021/10/22 09:39:22;;;;;;;12.88;2.30;;;;;;;;;;5009552;28;20034;-64
2021/10/22 09:41:48;;;;;;;13.05;3.33;;;;;;;;;;5010789;28;20034;-64
2021/10/22 09:44:14;;;;;;;19.90;4.05;;;;;;;;;;5011906;28;20037;-63
2021/10/22 09:46:40;;;;;;;15.63;2.80;;;;;;;;;;5011537;28;20367;-63
2021/10/22 09:49:05;;;;;;;21.42;3.80;;;;;;;;;;5007072;28;20068;-63
2021/10/22 09:51:32;;;;;;;20.77;5.50;;;;;;;;;;5004672;28;20084;-63
2021/10/22 09:53:58;;;;;;;20.27;4.35;;;;;;;;;;5003921;28;20038;-63
2021/10/22 09:56:24;;;;;;;32.47;7.03;;;;;;;;;;5005578;28;20120;-63
2021/10/22 09:58:50;;;;;;;14.57;3.90;;;;;;;;;;5012367;28;20022;-63
2021/10/22 10:01:16;;;;;;;21.13;5.85;;;;;;;;;;5013153;28;20562;-63
2021/10/22 10:03:42;;;;;;;14.50;5.13;;;;;;;;;;5014565;28;20030;-63
2021/10/22 10:06:08;;;;;;;28.38;6.18;;;;;;;;;;5009817;28;20869;-64
2021/10/22 10:08:35;;;;;;;16.67;5.93;;;;;;;;;;5013511;28;20029;-63
2021/10/22 10:11:01;;;;;;;16.83;5.13;;;;;;;;;;5012721;28;20116;-63
2021/10/22 10:13:27;;;;;;;22.70;5.00;;;;;;;;;;5011254;28;20079;-64
2021/10/22 10:15:53;;;;;;;21.83;5.10;;;;;;;;;;5016564;28;20029;-65
2021/10/22 10:18:18;;;;;;;22.65;5.15;;;;;;;;;;5010630;28;20034;-64
2021/10/22 10:20:44;;;;;;;23.10;6.95;;;;;;;;;;5009966;28;20041;-64
2021/10/22 10:23:10;;;;;;;30.92;7.30;;;;;;;;;;5014230;28;20044;-64
2021/10/22 10:25:36;;;;;;;27.30;7.50;;;;;;;;;;5010401;28;20110;-64
2021/10/22 10:28:03;;;;;;;30.17;8.95;;;;;;;;;;5006036;28;20034;-64
2021/10/22 10:30:29;;;;;;;57.38;24.55;;;;;;;;;;5016209;28;20056;-63
2021/10/22 10:32:54;;;;;;;43.55;16.73;;;;;;;;;;5008646;28;20041;-64
2021/10/22 10:35:20;;;;;;;22.63;7.03;;;;;;;;;;5012508;28;20033;-64
2021/10/22 10:37:47;;;;;;;21.98;7.07;;;;;;;;;;5010882;28;20034;-63
2021/10/22 10:40:14;;;;;;;19.95;6.00;;;;;;;;;;5009651;28;20052;-64
2021/10/22 10:42:40;;;;;;;22.67;7.57;;;;;;;;;;5010826;28;20091;-63
2021/10/22 10:45:06;;;;;;;17.27;7.28;;;;;;;;;;5008808;28;20037;-63
2021/10/22 10:47:33;;;;;;;16.67;4.13;;;;;;;;;;5007076;28;20041;-63
2021/10/22 10:49:59;;;;;;;21.23;4.20;;;;;;;;;;5007813;28;20735;-64
2021/10/22 10:52:26;;;;;;;13.93;4.03;;;;;;;;;;5008612;28;20095;-63
2021/10/22 10:54:52;;;;;;;14.43;3.15;;;;;;;;;;5019844;28;20040;-64
2021/10/22 10:57:18;;;;;;;10.18;3.20;;;;;;;;;;5007516;28;20037;-63
2021/10/22 10:59:44;;;;;;;6.95;2.88;;;;;;;;;;5007924;28;20041;-63
2021/10/22 11:02:10;;;;;;;11.02;2.70;;;;;;;;;;5012064;28;20057;-63
2021/10/22 11:04:36;;;;;;;12.82;2.30;;;;;;;;;;5008206;28;20080;-63
2021/10/22 11:07:02;;;;;;;9.20;2.70;;;;;;;;;;5006665;28;20041;-63
2021/10/22 11:09:28;;;;;;;14.05;3.55;;;;;;;;;;5013122;28;20033;-64
2021/10/22 11:11:54;;;;;;;12.05;2.85;;;;;;;;;;5007915;28;20494;-63
2021/10/22 11:14:20;;;;;;;14.38;3.35;;;;;;;;;;5013239;28;20029;-64
2021/10/22 11:16:46;;;;;;;16.75;2.85;;;;;;;;;;5009478;28;20034;-64
2021/10/22 11:19:12;;;;;;;7.97;2.88;;;;;;;;;;5020145;28;20048;-64
2021/10/22 11:21:38;;;;;;;10.18;2.72;;;;;;;;;;5014090;28;20041;-64
2021/10/22 11:24:04;;;;;;;12.93;3.10;;;;;;;;;;5010516;28;20029;-64
2021/10/22 11:26:30;;;;;;;13.55;2.20;;;;;;;;;;5006412;28;20810;-63
2021/10/22 11:28:56;;;;;;;13.35;3.00;;;;;;;;;;5012003;28;20504;-64
2021/10/22 11:31:22;;;;;;;9.95;2.10;;;;;;;;;;5011051;28;20424;-64
2021/10/22 11:33:48;;;;;;;10.40;1.98;;;;;;;;;;5012908;28;20034;-65
2021/10/22 11:36:14;;;;;;;14.73;2.10;;;;;;;;;;5011729;28;20060;-63
2021/10/22 11:38:40;;;;;;;11.20;3.30;;;;;;;;;;5006921;28;20060;-64
2021/10/22 11:41:06;;;;;;;10.85;4.18;;;;;;;;;;5012551;28;20504;-63
2021/10/22 11:43:32;;;;;;;10.32;3.00;;;;;;;;;;5007571;28;20088;-65
2021/10/22 11:45:58;;;;;;;16.88;7.22;;;;;;;;;;5015566;28;20047;-63
2021/10/22 11:48:24;;;;;;;13.95;5.03;;;;;;;;;;5009116;28;20033;-63
2021/10/22 11:50:50;;;;;;;8.48;2.75;;;;;;;;;;5010358;28;20030;-64
2021/10/22 11:53:23;;;;;;;7.93;2.47;;;;;;;;;;5015207;28;20052;-63
2021/10/22 11:55:49;;;;;;;7.22;1.70;;;;;;;;;;5006999;28;20018;-64
2021/10/22 11:58:18;;;;;;;10.02;1.98;;;;;;;;;;5011940;28;20949;-63
2021/10/22 12:00:43;;;;;;;11.07;1.98;;;;;;;;;;5013209;28;20609;-62
2021/10/22 12:03:09;;;;;;;8.10;1.48;;;;;;;;;;5008119;28;20045;-63
2021/10/22 12:05:35;;;;;;;11.75;2.42;;;;;;;;;;5009294;28;20069;-64
2021/10/22 12:08:01;;;;;;;12.48;1.67;;;;;;;;;;5009607;28;20174;-63
2021/10/22 12:10:27;;;;;;;4.70;1.70;;;;;;;;;;5010020;28;20034;-63
2021/10/22 12:12:53;;;;;;;8.50;2.35;;;;;;;;;;5010050;28;20727;-62
2021/10/22 12:15:19;;;;;;;22.70;3.38;;;;;;;;;;5008767;28;20045;-63
2021/10/22 12:17:45;;;;;;;8.60;2.25;;;;;;;;;;5006384;28;20033;-62
2021/10/22 12:20:11;;;;;;;7.85;1.75;;;;;;;;;;5016658;28;20393;-63
2021/10/22 12:22:37;;;;;;;11.90;1.90;;;;;;;;;;5006141;28;20481;-64
2021/10/22 12:25:03;;;;;;;11.50;1.33;;;;;;;;;;5007343;28;20049;-62
2021/10/22 12:27:29;;;;;;;8.30;1.73;;;;;;;;;;5006924;28;20034;-62
2021/10/22 12:29:56;;;;;;;7.97;1.58;;;;;;;;;;5011538;28;20036;-70
2021/10/22 12:32:22;;;;;;;7.85;1.73;;;;;;;;;;5008251;28;20064;-70
2021/10/22 12:34:49;;;;;;;6.90;1.52;;;;;;;;;;5011470;28;20064;-68
2021/10/22 12:37:17;;;;;;;10.52;1.50;;;;;;;;;;5012289;28;20052;-65
2021/10/22 12:39:43;;;;;;;13.95;2.13;;;;;;;;;;5006282;28;20433;-63
2021/10/22 12:42:09;;;;;;;14.63;3.65;;;;;;;;;;5006117;28;20030;-62
2021/10/22 12:44:35;;;;;;;10.70;2.80;;;;;;;;;;5006335;28;20029;-63
2021/10/22 12:47:01;;;;;;;9.30;1.98;;;;;;;;;;5009618;28;20045;-63
2021/10/22 12:49:27;;;;;;;12.05;1.83;;;;;;;;;;5008605;28;20036;-63
2021/10/22 12:51:53;;;;;;;11.25;1.92;;;;;;;;;;5014978;28;20185;-63
2021/10/22 12:54:19;;;;;;;7.22;1.70;;;;;;;;;;5011392;28;20033;-63
2021/10/22 12:56:45;;;;;;;9.65;3.53;;;;;;;;;;5010241;28;20037;-63
2021/10/22 12:59:12;;;;;;;14.10;2.75;;;;;;;;;;5007010;28;20033;-63
2021/10/22 13:01:38;;;;;;;7.05;1.98;;;;;;;;;;5007902;28;20060;-63
2021/10/22 13:04:04;;;;;;;5.82;1.70;;;;;;;;;;5008977;28;20045;-63
2021/10/22 13:06:39;;;;;;;7.32;2.13;;;;;;;;;;5010369;28;20519;-63
2021/10/22 13:09:20;;;;;;;;;;;;;;;;;;5011365;28;20044;-63
2021/10/22 13:14:50;;;;;;;;;;;;;;;;;;5010649;28;20034;-62
2021/10/22 13:22:43;;;;;;;11.45;2.08;;;;;;;;;;5015869;28;20099;-62
2021/10/22 13:25:09;;;;;;;9.15;2.30;;;;;;;;;;5017878;28;20029;-61
2021/10/22 13:27:35;;;;;;;7.15;2.65;;;;;;;;;;5015565;28;20721;-62
2021/10/22 13:30:04;;;;;;;11.20;2.08;;;;;;;;;;5014561;28;20485;-62
2021/10/22 13:32:30;;;;;;;6.57;2.03;;;;;;;;;;5010268;28;20759;-63
2021/10/22 13:34:56;;;;;;;8.95;2.67;;;;;;;;;;5012417;28;20045;-63
2021/10/22 13:37:22;;;;;;;13.77;2.72;;;;;;;;;;5010249;28;20037;-62
2021/10/22 13:39:48;;;;;;;14.98;3.15;;;;;;;;;;5014355;28;20497;-62
2021/10/22 13:42:15;;;;;;;6.47;2.10;;;;;;;;;;5013357;28;20072;-62
2021/10/22 13:44:41;;;;;;;9.48;2.58;;;;;;;;;;5016309;28;20129;-63
2021/10/22 13:47:09;;;;;;;10.07;3.83;;;;;;;;;;5009620;28;20076;-62
2021/10/22 13:49:35;;;;;;;4.78;2.40;;;;;;;;;;5007687;28;20080;-62
2021/10/22 13:52:01;;;;;;;9.65;2.42;;;;;;;;;;5011795;28;20034;-62
2021/10/22 13:54:27;;;;;;;16.20;2.40;;;;;;;;;;5016266;28;20068;-62
2021/10/22 13:56:54;;;;;;;13.35;2.85;;;;;;;;;;5015153;28;20033;-62
2021/10/22 13:59:20;;;;;;;10.15;2.88;;;;;;;;;;5016097;28;20037;-62
2021/10/22 14:01:46;;;;;;;9.20;2.97;;;;;;;;;;5010437;28;20057;-62
2021/10/22 14:04:12;;;;;;;6.07;2.88;;;;;;;;;;5010775;28;20120;-62
2021/10/22 14:06:38;;;;;;;7.70;3.50;;;;;;;;;;5012329;28;20038;-63
2021/10/22 14:09:04;;;;;;;10.85;2.80;;;;;;;;;;5014475;28;20036;-62
2021/10/22 14:11:32;;;;;;;10.23;3.55;;;;;;;;;;5010490;28;20029;-62
2021/10/22 14:14:10;;;;;;;9.45;3.85;;;;;;;;;;5015753;28;20053;-63
2021/10/22 14:30:06;;;;;;;46.00;7.45;;;;;;;;;;5015434;28;20557;-65
2021/10/22 14:32:33;;;;;;;38.55;7.65;;;;;;;;;;5006718;28;20041;-62
2021/10/22 14:34:59;;;;;;;49.13;10.95;;;;;;;;;;5013074;28;20493;-62
2021/10/22 14:37:25;;;;;;;35.13;6.47;;;;;;;;;;5008250;28;20034;-63
2021/10/22 14:39:51;;;;;;;41.83;7.78;;;;;;;;;;5010882;28;20080;-62
2021/10/22 14:42:18;;;;;;;52.47;8.35;;;;;;;;;;5007027;28;20477;-64
2021/10/22 14:44:44;;;;;;;45.65;7.65;;;;;;;;;;5007523;28;20041;-63
2021/10/22 14:47:17;;;;;;;49.97;8.82;;;;;;;;;;5020602;28;20822;-63
2021/10/22 14:49:47;;;;;;;41.15;9.68;;;;;;;;;;5008753;28;20473;-62
2021/10/22 14:52:25;;;;;;;57.33;11.23;;;;;;;;;;5017716;28;20423;-63